sensor_id;sensor_type;location;lat;lon;timestamp;pressure;altitude;pressure_sealevel;temperature;humidity
39699;BME280;25372;50.582;12.250;2023-09-19T00:06:05;99071.66;;;13.64;100.00
39699;BME280;25372;50.582;12.250;2023-09-19T00:16:26;99075.97;;;13.65;100.00
39699;BME280;25372;50.582;12.250;2023-09-19T00:26:49;99067.34;;;13.63;100.00
39699;BME280;25372;50.582;12.250;2023-09-19T00:37:09;99061.78;;;13.66;100.00
39699;BME280;25372;50.582;12.250;2023-09-19T00:47:33;99053.34;;;13.72;100.00
39699;BME280;25372;50.582;12.250;2023-09-19T00:57:55;99048.03;;;13.62;100.00
39699;BME280;25372;50.582;12.250;2023-09-19T01:08:18;99053.59;;;13.59;100.00
39699;BME280;25372;50.582;12.250;2023-09-19T01:18:43;99061.78;;;13.66;100.00
39699;BME280;25372;50.582;12.250;2023-09-19T01:29:25;99073.19;;;13.66;100.00
39699;BME280;25372;50.582;12.250;2023-09-19T01:39:57;99076.09;;;13.63;100.00
39699;BME280;25372;50.582;12.250;2023-09-19T01:50:30;99057.50;;;13.65;100.00
39699;BME280;25372;50.582;12.250;2023-09-19T02:00:58;99077.66;;;13.86;100.00
39699;BME280;25372;50.582;12.250;2023-09-19T02:11:20;99082.66;;;14.08;100.00
39699;BME280;25372;50.582;12.250;2023-09-19T02:21:42;99076.25;;;14.60;100.00
39699;BME280;25372;50.582;12.250;2023-09-19T02:32:03;99069.66;;;14.84;100.00
39699;BME280;25372;50.582;12.250;2023-09-19T02:42:27;99091.88;;;14.91;100.00
39699;BME280;25372;50.582;12.250;2023-09-19T02:52:48;99104.44;;;14.79;100.00
39699;BME280;25372;50.582;12.250;2023-09-19T03:03:11;99100.91;;;14.99;100.00
39699;BME280;25372;50.582;12.250;2023-09-19T03:13:32;99117.88;;;14.96;100.00
39699;BME280;25372;50.582;12.250;2023-09-19T03:23:55;99136.38;;;15.06;97.63
39699;BME280;25372;50.582;12.250;2023-09-19T03:34:15;99132.50;;;15.00;98.00
39699;BME280;25372;50.582;12.250;2023-09-19T03:44:38;99133.13;;;15.22;96.60
39699;BME280;25372;50.582;12.250;2023-09-19T03:55:00;99120.84;;;15.31;95.31
39699;BME280;25372;50.582;12.250;2023-09-19T04:05:24;99150.50;;;15.24;95.15
39699;BME280;25372;50.582;12.250;2023-09-19T04:15:45;99153.88;;;15.17;94.74
39699;BME280;25372;50.582;12.250;2023-09-19T04:26:08;99164.69;;;15.33;93.78
39699;BME280;25372;50.582;12.250;2023-09-19T04:36:28;99162.06;;;15.23;92.92
39699;BME280;25372;50.582;12.250;2023-09-19T04:46:51;99178.66;;;15.16;93.71
39699;BME280;25372;50.582;12.250;2023-09-19T04:57:11;99187.94;;;15.20;93.28
39699;BME280;25372;50.582;12.250;2023-09-19T05:07:34;99192.81;;;15.24;92.37
39699;BME280;25372;50.582;12.250;2023-09-19T05:17:55;99220.06;;;15.45;90.39
39699;BME280;25372;50.582;12.250;2023-09-19T05:28:16;99223.09;;;15.50;90.41
39699;BME280;25372;50.582;12.250;2023-09-19T05:38:37;99230.91;;;15.42;90.21
39699;BME280;25372;50.582;12.250;2023-09-19T05:49:02;99247.41;;;15.63;89.77
39699;BME280;25372;50.582;12.250;2023-09-19T05:59:23;99247.34;;;15.83;87.60
39699;BME280;25372;50.582;12.250;2023-09-19T06:09:46;99246.34;;;15.94;87.53
39699;BME280;25372;50.582;12.250;2023-09-19T06:20:07;99259.09;;;16.08;87.31
39699;BME280;25372;50.582;12.250;2023-09-19T06:30:33;99272.03;;;16.12;86.24
39699;BME280;25372;50.582;12.250;2023-09-19T06:40:55;99289.47;;;16.32;84.88
39699;BME280;25372;50.582;12.250;2023-09-19T06:51:18;99303.09;;;16.66;81.56
39699;BME280;25372;50.582;12.250;2023-09-19T07:01:39;99316.75;;;16.89;81.68
39699;BME280;25372;50.582;12.250;2023-09-19T07:12:02;99344.69;;;17.38;76.74
39699;BME280;25372;50.582;12.250;2023-09-19T07:22:22;99360.63;;;17.38;77.33
39699;BME280;25372;50.582;12.250;2023-09-19T07:32:44;99374.13;;;17.71;74.79
39699;BME280;25372;50.582;12.250;2023-09-19T07:43:05;99375.91;;;17.88;73.06
39699;BME280;25372;50.582;12.250;2023-09-19T07:53:27;99392.41;;;17.74;70.96
39699;BME280;25372;50.582;12.250;2023-09-19T08:03:49;99395.16;;;17.64;67.89
39699;BME280;25372;50.582;12.250;2023-09-19T08:14:11;99390.59;;;17.74;67.02
39699;BME280;25372;50.582;12.250;2023-09-19T08:24:34;99401.78;;;18.05;69.41
39699;BME280;25372;50.582;12.250;2023-09-19T08:34:56;99407.59;;;18.43;63.85
39699;BME280;25372;50.582;12.250;2023-09-19T08:45:17;99422.53;;;18.79;65.12
39699;BME280;25372;50.582;12.250;2023-09-19T08:55:40;99418.81;;;18.63;65.77
39699;BME280;25372;50.582;12.250;2023-09-19T09:06:02;99435.06;;;18.95;62.05
39699;BME280;25372;50.582;12.250;2023-09-19T09:16:24;99433.66;;;19.83;60.39
39699;BME280;25372;50.582;12.250;2023-09-19T09:26:45;99426.38;;;20.50;54.61
39699;BME280;25372;50.582;12.250;2023-09-19T09:37:13;99435.34;;;20.01;57.58
39699;BME280;25372;50.582;12.250;2023-09-19T09:47:41;99457.41;;;20.35;59.20
39699;BME280;25372;50.582;12.250;2023-09-19T09:58:20;99441.66;;;19.75;59.34
39699;BME280;25372;50.582;12.250;2023-09-19T10:08:57;99444.97;;;19.44;59.07
39699;BME280;25372;50.582;12.250;2023-09-19T10:19:29;99447.66;;;19.94;58.51
39699;BME280;25372;50.582;12.250;2023-09-19T10:29:53;99450.97;;;19.96;56.62
39699;BME280;25372;50.582;12.250;2023-09-19T10:40:18;99459.47;;;20.08;58.75
39699;BME280;25372;50.582;12.250;2023-09-19T10:50:44;99452.94;;;20.19;53.71
39699;BME280;25372;50.582;12.250;2023-09-19T11:01:11;99437.94;;;20.83;51.73
39699;BME280;25372;50.582;12.250;2023-09-19T11:11:44;99433.13;;;21.33;50.01
39699;BME280;25372;50.582;12.250;2023-09-19T11:22:11;99434.00;;;22.25;47.49
39699;BME280;25372;50.582;12.250;2023-09-19T11:43:33;99431.66;;;21.54;47.74
39699;BME280;25372;50.582;12.250;2023-09-19T11:53:56;99448.09;;;21.42;47.42
39699;BME280;25372;50.582;12.250;2023-09-19T12:04:35;99434.59;;;21.59;47.91
39699;BME280;25372;50.582;12.250;2023-09-19T12:14:57;99438.25;;;21.19;51.74
39699;BME280;25372;50.582;12.250;2023-09-19T12:25:20;99439.59;;;21.38;51.56
39699;BME280;25372;50.582;12.250;2023-09-19T12:35:41;99436.09;;;21.38;49.86
39699;BME280;25372;50.582;12.250;2023-09-19T12:46:06;99426.63;;;21.35;50.72
39699;BME280;25372;50.582;12.250;2023-09-19T12:56:26;99416.09;;;21.57;49.68
39699;BME280;25372;50.582;12.250;2023-09-19T13:06:50;99424.50;;;21.92;48.91
39699;BME280;25372;50.582;12.250;2023-09-19T13:17:11;99427.16;;;22.23;48.94
39699;BME280;25372;50.582;12.250;2023-09-19T13:27:37;99431.09;;;21.82;49.02
39699;BME280;25372;50.582;12.250;2023-09-19T13:37:57;99418.84;;;21.87;50.02
39699;BME280;25372;50.582;12.250;2023-09-19T13:48:19;99415.72;;;21.84;51.06
39699;BME280;25372;50.582;12.250;2023-09-19T13:58:41;99419.63;;;21.96;47.25
39699;BME280;25372;50.582;12.250;2023-09-19T14:09:04;99419.16;;;21.46;49.18
39699;BME280;25372;50.582;12.250;2023-09-19T14:19:24;99411.41;;;22.13;48.29
39699;BME280;25372;50.582;12.250;2023-09-19T14:29:46;99409.47;;;22.06;44.95
39699;BME280;25372;50.582;12.250;2023-09-19T14:40:08;99397.50;;;22.17;43.96
39699;BME280;25372;50.582;12.250;2023-09-19T14:50:31;99397.59;;;23.28;42.89
39699;BME280;25372;50.582;12.250;2023-09-19T15:00:52;99399.06;;;22.42;44.03
39699;BME280;25372;50.582;12.250;2023-09-19T15:11:15;99402.34;;;21.69;44.03
39699;BME280;25372;50.582;12.250;2023-09-19T15:21:36;99399.25;;;22.70;41.95
39699;BME280;25372;50.582;12.250;2023-09-19T15:31:59;99396.03;;;22.97;41.79
39699;BME280;25372;50.582;12.250;2023-09-19T15:42:21;99387.22;;;23.03;41.24
39699;BME280;25372;50.582;12.250;2023-09-19T15:52:44;99397.41;;;22.11;42.70
39699;BME280;25372;50.582;12.250;2023-09-19T16:03:05;99391.69;;;22.96;41.03
39699;BME280;25372;50.582;12.250;2023-09-19T16:13:27;99399.66;;;20.99;44.40
39699;BME280;25372;50.582;12.250;2023-09-19T16:23:50;99414.03;;;19.60;49.11
39699;BME280;25372;50.582;12.250;2023-09-19T16:34:14;99414.41;;;18.89;47.77
39699;BME280;25372;50.582;12.250;2023-09-19T16:44:35;99421.75;;;18.43;50.72
39699;BME280;25372;50.582;12.250;2023-09-19T16:54:58;99434.88;;;17.92;48.82
39699;BME280;25372;50.582;12.250;2023-09-19T17:05:18;99449.00;;;17.20;52.84
39699;BME280;25372;50.582;12.250;2023-09-19T17:15:41;99459.56;;;17.02;50.35
39699;BME280;25372;50.582;12.250;2023-09-19T17:26:03;99471.72;;;16.76;51.75
39699;BME280;25372;50.582;12.250;2023-09-19T17:36:27;99482.22;;;15.61;58.11
39699;BME280;25372;50.582;12.250;2023-09-19T17:46:51;99473.31;;;15.33;63.74
39699;BME280;25372;50.582;12.250;2023-09-19T17:57:14;99482.63;;;14.76;63.18
39699;BME280;25372;50.582;12.250;2023-09-19T18:07:35;99503.66;;;14.35;69.53
39699;BME280;25372;50.582;12.250;2023-09-19T18:17:58;99519.97;;;13.65;73.56
39699;BME280;25372;50.582;12.250;2023-09-19T18:28:19;99541.88;;;13.33;73.18
39699;BME280;25372;50.582;12.250;2023-09-19T18:38:42;99548.31;;;13.40;76.36
39699;BME280;25372;50.582;12.250;2023-09-19T18:49:04;99547.84;;;13.35;75.81
39699;BME280;25372;50.582;12.250;2023-09-19T18:59:27;99556.25;;;13.18;78.34
39699;BME280;25372;50.582;12.250;2023-09-19T19:09:48;99565.50;;;12.89;77.23
39699;BME280;25372;50.582;12.250;2023-09-19T19:20:11;99565.06;;;12.37;79.97
39699;BME280;25372;50.582;12.250;2023-09-19T19:30:42;99568.06;;;12.43;81.57
39699;BME280;25372;50.582;12.250;2023-09-19T19:41:05;99572.69;;;12.28;83.43
39699;BME280;25372;50.582;12.250;2023-09-19T19:51:26;99578.13;;;12.02;83.14
39699;BME280;25372;50.582;12.250;2023-09-19T20:01:49;99576.03;;;11.70;84.69
39699;BME280;25372;50.582;12.250;2023-09-19T20:12:10;99576.47;;;11.88;86.32
39699;BME280;25372;50.582;12.250;2023-09-19T20:22:32;99577.09;;;11.92;86.70
39699;BME280;25372;50.582;12.250;2023-09-19T20:32:55;99582.72;;;11.74;87.56
39699;BME280;25372;50.582;12.250;2023-09-19T20:43:17;99577.66;;;11.60;87.42
39699;BME280;25372;50.582;12.250;2023-09-19T20:53:40;99575.50;;;11.41;86.47
39699;BME280;25372;50.582;12.250;2023-09-19T21:04:04;99566.50;;;11.19;86.92
39699;BME280;25372;50.582;12.250;2023-09-19T21:14:25;99575.44;;;11.29;88.50
39699;BME280;25372;50.582;12.250;2023-09-19T21:24:48;99567.38;;;10.94;90.17
39699;BME280;25372;50.582;12.250;2023-09-19T21:35:10;99563.72;;;10.83;90.47
39699;BME280;25372;50.582;12.250;2023-09-19T21:45:34;99562.25;;;10.79;92.53
39699;BME280;25372;50.582;12.250;2023-09-19T21:55:58;99566.47;;;10.69;91.42
39699;BME280;25372;50.582;12.250;2023-09-19T22:06:21;99550.38;;;10.60;90.79
39699;BME280;25372;50.582;12.250;2023-09-19T22:16:42;99553.13;;;10.46;92.51
39699;BME280;25372;50.582;12.250;2023-09-19T22:27:05;99540.56;;;10.37;92.75
39699;BME280;25372;50.582;12.250;2023-09-19T22:37:26;99540.56;;;10.37;93.40
39699;BME280;25372;50.582;12.250;2023-09-19T22:47:48;99535.31;;;10.37;93.35
39699;BME280;25372;50.582;12.250;2023-09-19T22:58:09;99536.44;;;10.32;93.96
39699;BME280;25372;50.582;12.250;2023-09-19T23:08:31;99538.97;;;10.21;94.88
39699;BME280;25372;50.582;12.250;2023-09-19T23:18:53;99541.66;;;10.47;95.75
39699;BME280;25372;50.582;12.250;2023-09-19T23:29:17;99550.94;;;10.38;95.03
39699;BME280;25372;50.582;12.250;2023-09-19T23:39:39;99543.59;;;10.30;96.94
39699;BME280;25372;50.582;12.250;2023-09-19T23:50:02;99547.13;;;10.16;96.19
